sensor_id;sensor_type;location;lat;lon;timestamp;P1;durP1;ratioP1;P2;durP2;ratioP2
50345;SDS011;36248;37.258;-121.918;2022-09-21T00:01:57;0.74;;;0.62;;
50345;SDS011;36248;37.258;-121.918;2022-09-21T00:04:27;0.95;;;0.79;;
50345;SDS011;36248;37.258;-121.918;2022-09-21T00:06:59;0.95;;;0.79;;
50345;SDS011;36248;37.258;-121.918;2022-09-21T00:09:29;0.95;;;0.80;;
50345;SDS011;36248;37.258;-121.918;2022-09-21T00:12:00;0.82;;;0.68;;
50345;SDS011;36248;37.258;-121.918;2022-09-21T00:14:30;0.83;;;0.68;;
50345;SDS011;36248;37.258;-121.918;2022-09-21T00:17:00;0.69;;;0.58;;
50345;SDS011;36248;37.258;-121.918;2022-09-21T00:19:30;0.95;;;0.79;;
50345;SDS011;36248;37.258;-121.918;2022-09-21T00:22:02;1.16;;;0.97;;
50345;SDS011;36248;37.258;-121.918;2022-09-21T00:24:32;0.79;;;0.66;;
50345;SDS011;36248;37.258;-121.918;2022-09-21T00:27:03;0.91;;;0.77;;
50345;SDS011;36248;37.258;-121.918;2022-09-21T00:29:33;1.03;;;0.88;;
50345;SDS011;36248;37.258;-121.918;2022-09-21T00:32:03;1.07;;;0.90;;
50345;SDS011;36248;37.258;-121.918;2022-09-21T00:34:33;0.92;;;0.77;;
50345;SDS011;36248;37.258;-121.918;2022-09-21T00:37:06;0.83;;;0.70;;
50345;SDS011;36248;37.258;-121.918;2022-09-21T00:39:36;1.46;;;1.25;;
50345;SDS011;36248;37.258;-121.918;2022-09-21T00:42:07;0.85;;;0.74;;
50345;SDS011;36248;37.258;-121.918;2022-09-21T00:44:38;0.63;;;0.55;;
50345;SDS011;36248;37.258;-121.918;2022-09-21T00:47:09;0.62;;;0.54;;
50345;SDS011;36248;37.258;-121.918;2022-09-21T00:49:41;1.22;;;1.05;;
50345;SDS011;36248;37.258;-121.918;2022-09-21T00:52:16;0.92;;;0.79;;
50345;SDS011;36248;37.258;-121.918;2022-09-21T00:54:51;0.78;;;0.66;;
50345;SDS011;36248;37.258;-121.918;2022-09-21T00:57:24;0.82;;;0.68;;
50345;SDS011;36248;37.258;-121.918;2022-09-21T00:59:56;0.85;;;0.70;;
50345;SDS011;36248;37.258;-121.918;2022-09-21T01:02:29;0.81;;;0.66;;
50345;SDS011;36248;37.258;-121.918;2022-09-21T01:05:00;0.83;;;0.68;;
50345;SDS011;36248;37.258;-121.918;2022-09-21T01:07:35;1.00;;;0.82;;
50345;SDS011;36248;37.258;-121.918;2022-09-21T01:10:07;1.05;;;0.86;;
50345;SDS011;36248;37.258;-121.918;2022-09-21T01:12:45;0.85;;;0.69;;
50345;SDS011;36248;37.258;-121.918;2022-09-21T01:15:28;1.03;;;0.85;;
50345;SDS011;36248;37.258;-121.918;2022-09-21T01:18:09;1.06;;;0.88;;
50345;SDS011;36248;37.258;-121.918;2022-09-21T01:20:57;1.09;;;0.90;;
50345;SDS011;36248;37.258;-121.918;2022-09-21T01:26:51;1.39;;;1.13;;
50345;SDS011;36248;37.258;-121.918;2022-09-21T01:29:30;1.32;;;1.09;;
50345;SDS011;36248;37.258;-121.918;2022-09-21T01:32:03;1.11;;;0.93;;
50345;SDS011;36248;37.258;-121.918;2022-09-21T01:34:40;1.38;;;1.13;;
50345;SDS011;36248;37.258;-121.918;2022-09-21T01:37:16;1.29;;;1.05;;
50345;SDS011;36248;37.258;-121.918;2022-09-21T01:39:52;1.34;;;1.08;;
50345;SDS011;36248;37.258;-121.918;2022-09-21T01:42:26;1.32;;;1.06;;
50345;SDS011;36248;37.258;-121.918;2022-09-21T01:45:01;1.04;;;0.83;;
50345;SDS011;36248;37.258;-121.918;2022-09-21T01:47:35;1.13;;;0.92;;
50345;SDS011;36248;37.258;-121.918;2022-09-21T01:50:08;1.16;;;0.95;;
50345;SDS011;36248;37.258;-121.918;2022-09-21T01:52:41;1.27;;;1.04;;
50345;SDS011;36248;37.258;-121.918;2022-09-21T01:55:17;1.25;;;1.01;;
50345;SDS011;36248;37.258;-121.918;2022-09-21T01:57:54;1.15;;;0.94;;
50345;SDS011;36248;37.258;-121.918;2022-09-21T02:00:32;1.20;;;1.00;;
50345;SDS011;36248;37.258;-121.918;2022-09-21T02:03:06;1.15;;;0.98;;
50345;SDS011;36248;37.258;-121.918;2022-09-21T02:05:40;1.02;;;0.86;;
50345;SDS011;36248;37.258;-121.918;2022-09-21T02:08:11;1.32;;;1.09;;
50345;SDS011;36248;37.258;-121.918;2022-09-21T02:10:41;1.26;;;1.04;;
50345;SDS011;36248;37.258;-121.918;2022-09-21T02:13:16;1.28;;;1.05;;
50345;SDS011;36248;37.258;-121.918;2022-09-21T02:15:52;1.36;;;1.12;;
50345;SDS011;36248;37.258;-121.918;2022-09-21T02:18:40;1.29;;;1.06;;
50345;SDS011;36248;37.258;-121.918;2022-09-21T02:21:18;1.43;;;1.15;;
50345;SDS011;36248;37.258;-121.918;2022-09-21T02:23:56;1.48;;;1.18;;
50345;SDS011;36248;37.258;-121.918;2022-09-21T02:26:32;1.39;;;1.10;;
50345;SDS011;36248;37.258;-121.918;2022-09-21T02:29:08;1.45;;;1.15;;
50345;SDS011;36248;37.258;-121.918;2022-09-21T02:31:48;1.34;;;1.09;;
50345;SDS011;36248;37.258;-121.918;2022-09-21T02:34:24;1.33;;;1.07;;
50345;SDS011;36248;37.258;-121.918;2022-09-21T02:37:01;1.18;;;0.97;;
50345;SDS011;36248;37.258;-121.918;2022-09-21T02:39:37;1.25;;;1.03;;
50345;SDS011;36248;37.258;-121.918;2022-09-21T02:42:11;1.13;;;0.93;;
50345;SDS011;36248;37.258;-121.918;2022-09-21T02:44:46;1.25;;;1.03;;
50345;SDS011;36248;37.258;-121.918;2022-09-21T02:47:27;1.12;;;0.91;;
50345;SDS011;36248;37.258;-121.918;2022-09-21T02:50:02;1.56;;;1.27;;
50345;SDS011;36248;37.258;-121.918;2022-09-21T02:52:36;1.50;;;1.22;;
50345;SDS011;36248;37.258;-121.918;2022-09-21T02:55:10;1.26;;;1.03;;
50345;SDS011;36248;37.258;-121.918;2022-09-21T02:57:45;1.34;;;1.09;;
50345;SDS011;36248;37.258;-121.918;2022-09-21T03:00:16;1.33;;;1.07;;
50345;SDS011;36248;37.258;-121.918;2022-09-21T03:02:48;1.27;;;1.02;;
50345;SDS011;36248;37.258;-121.918;2022-09-21T03:05:18;1.28;;;1.03;;
50345;SDS011;36248;37.258;-121.918;2022-09-21T03:07:48;1.30;;;1.05;;
50345;SDS011;36248;37.258;-121.918;2022-09-21T03:10:17;1.23;;;1.00;;
50345;SDS011;36248;37.258;-121.918;2022-09-21T03:12:47;1.24;;;1.00;;
50345;SDS011;36248;37.258;-121.918;2022-09-21T03:15:17;1.11;;;0.89;;
50345;SDS011;36248;37.258;-121.918;2022-09-21T03:17:49;1.08;;;0.87;;
50345;SDS011;36248;37.258;-121.918;2022-09-21T03:20:18;1.03;;;0.83;;
50345;SDS011;36248;37.258;-121.918;2022-09-21T03:22:48;0.88;;;0.72;;
50345;SDS011;36248;37.258;-121.918;2022-09-21T03:25:18;1.02;;;0.83;;
50345;SDS011;36248;37.258;-121.918;2022-09-21T03:27:47;0.91;;;0.75;;
50345;SDS011;36248;37.258;-121.918;2022-09-21T03:30:18;1.31;;;1.08;;
50345;SDS011;36248;37.258;-121.918;2022-09-21T03:32:51;1.43;;;1.17;;
50345;SDS011;36248;37.258;-121.918;2022-09-21T03:35:23;1.17;;;0.96;;
50345;SDS011;36248;37.258;-121.918;2022-09-21T03:37:53;1.38;;;1.13;;
50345;SDS011;36248;37.258;-121.918;2022-09-21T03:40:24;1.48;;;1.21;;
50345;SDS011;36248;37.258;-121.918;2022-09-21T03:42:54;1.20;;;1.01;;
50345;SDS011;36248;37.258;-121.918;2022-09-21T03:45:25;1.19;;;1.01;;
50345;SDS011;36248;37.258;-121.918;2022-09-21T03:47:58;1.17;;;0.98;;
50345;SDS011;36248;37.258;-121.918;2022-09-21T03:50:29;1.50;;;1.27;;
50345;SDS011;36248;37.258;-121.918;2022-09-21T03:52:58;1.24;;;1.06;;
50345;SDS011;36248;37.258;-121.918;2022-09-21T03:55:28;1.43;;;1.22;;
50345;SDS011;36248;37.258;-121.918;2022-09-21T03:57:58;1.16;;;0.99;;
50345;SDS011;36248;37.258;-121.918;2022-09-21T04:00:29;1.84;;;1.57;;
50345;SDS011;36248;37.258;-121.918;2022-09-21T04:03:03;1.87;;;1.62;;
50345;SDS011;36248;37.258;-121.918;2022-09-21T04:05:33;1.68;;;1.51;;
50345;SDS011;36248;37.258;-121.918;2022-09-21T04:08:03;1.28;;;1.19;;
50345;SDS011;36248;37.258;-121.918;2022-09-21T04:10:34;1.28;;;1.19;;
50345;SDS011;36248;37.258;-121.918;2022-09-21T04:13:05;1.11;;;1.01;;
50345;SDS011;36248;37.258;-121.918;2022-09-21T04:15:36;1.01;;;0.92;;
50345;SDS011;36248;37.258;-121.918;2022-09-21T04:18:08;1.08;;;0.98;;
50345;SDS011;36248;37.258;-121.918;2022-09-21T04:20:38;1.16;;;1.05;;
50345;SDS011;36248;37.258;-121.918;2022-09-21T04:23:08;1.06;;;0.96;;
50345;SDS011;36248;37.258;-121.918;2022-09-21T04:25:38;1.26;;;1.14;;
50345;SDS011;36248;37.258;-121.918;2022-09-21T04:28:08;1.33;;;1.20;;
50345;SDS011;36248;37.258;-121.918;2022-09-21T04:30:37;1.32;;;1.19;;
50345;SDS011;36248;37.258;-121.918;2022-09-21T04:33:10;1.27;;;1.12;;
50345;SDS011;36248;37.258;-121.918;2022-09-21T04:35:40;1.07;;;0.96;;
50345;SDS011;36248;37.258;-121.918;2022-09-21T04:38:09;1.07;;;0.97;;
50345;SDS011;36248;37.258;-121.918;2022-09-21T04:40:39;1.06;;;0.95;;
50345;SDS011;36248;37.258;-121.918;2022-09-21T04:43:10;1.15;;;1.02;;
50345;SDS011;36248;37.258;-121.918;2022-09-21T04:45:40;1.27;;;1.11;;
50345;SDS011;36248;37.258;-121.918;2022-09-21T04:48:12;1.19;;;1.04;;
50345;SDS011;36248;37.258;-121.918;2022-09-21T04:50:42;1.17;;;1.03;;
50345;SDS011;36248;37.258;-121.918;2022-09-21T04:53:16;1.19;;;1.04;;
50345;SDS011;36248;37.258;-121.918;2022-09-21T04:55:45;1.46;;;1.29;;
50345;SDS011;36248;37.258;-121.918;2022-09-21T04:58:15;1.16;;;1.05;;
50345;SDS011;36248;37.258;-121.918;2022-09-21T05:00:47;1.18;;;1.08;;
50345;SDS011;36248;37.258;-121.918;2022-09-21T05:03:21;0.95;;;0.89;;
50345;SDS011;36248;37.258;-121.918;2022-09-21T05:05:53;1.12;;;1.04;;
50345;SDS011;36248;37.258;-121.918;2022-09-21T05:08:24;0.96;;;0.89;;
50345;SDS011;36248;37.258;-121.918;2022-09-21T05:11:07;0.98;;;0.91;;
50345;SDS011;36248;37.258;-121.918;2022-09-21T05:13:40;1.00;;;0.94;;
50345;SDS011;36248;37.258;-121.918;2022-09-21T05:16:11;0.95;;;0.90;;
50345;SDS011;36248;37.258;-121.918;2022-09-21T05:18:43;0.89;;;0.83;;
50345;SDS011;36248;37.258;-121.918;2022-09-21T05:21:14;0.98;;;0.92;;
50345;SDS011;36248;37.258;-121.918;2022-09-21T05:23:44;1.18;;;1.11;;
50345;SDS011;36248;37.258;-121.918;2022-09-21T05:26:14;2.13;;;2.01;;
50345;SDS011;36248;37.258;-121.918;2022-09-21T05:28:44;1.12;;;1.05;;
50345;SDS011;36248;37.258;-121.918;2022-09-21T05:31:18;1.07;;;1.00;;
50345;SDS011;36248;37.258;-121.918;2022-09-21T05:34:02;0.92;;;0.86;;
50345;SDS011;36248;37.258;-121.918;2022-09-21T05:36:40;0.94;;;0.87;;
50345;SDS011;36248;37.258;-121.918;2022-09-21T05:39:16;0.82;;;0.75;;
50345;SDS011;36248;37.258;-121.918;2022-09-21T05:41:50;0.95;;;0.88;;
50345;SDS011;36248;37.258;-121.918;2022-09-21T05:44:20;0.80;;;0.74;;
50345;SDS011;36248;37.258;-121.918;2022-09-21T05:46:52;0.87;;;0.81;;
50345;SDS011;36248;37.258;-121.918;2022-09-21T05:49:32;0.92;;;0.85;;
50345;SDS011;36248;37.258;-121.918;2022-09-21T05:52:14;0.92;;;0.85;;
50345;SDS011;36248;37.258;-121.918;2022-09-21T05:54:52;0.95;;;0.87;;
50345;SDS011;36248;37.258;-121.918;2022-09-21T05:57:33;0.97;;;0.88;;
50345;SDS011;36248;37.258;-121.918;2022-09-21T06:00:13;0.86;;;0.77;;
50345;SDS011;36248;37.258;-121.918;2022-09-21T06:02:49;1.01;;;0.89;;
50345;SDS011;36248;37.258;-121.918;2022-09-21T06:05:35;1.03;;;0.90;;
50345;SDS011;36248;37.258;-121.918;2022-09-21T06:08:05;0.83;;;0.72;;
50345;SDS011;36248;37.258;-121.918;2022-09-21T06:10:38;1.07;;;0.91;;
50345;SDS011;36248;37.258;-121.918;2022-09-21T06:13:08;0.99;;;0.86;;
50345;SDS011;36248;37.258;-121.918;2022-09-21T06:15:38;0.87;;;0.75;;
50345;SDS011;36248;37.258;-121.918;2022-09-21T06:18:08;0.82;;;0.72;;
50345;SDS011;36248;37.258;-121.918;2022-09-21T06:20:40;0.88;;;0.76;;
50345;SDS011;36248;37.258;-121.918;2022-09-21T06:23:11;0.87;;;0.75;;
50345;SDS011;36248;37.258;-121.918;2022-09-21T06:25:41;0.95;;;0.82;;
50345;SDS011;36248;37.258;-121.918;2022-09-21T06:28:11;0.98;;;0.86;;
50345;SDS011;36248;37.258;-121.918;2022-09-21T06:30:42;0.93;;;0.84;;
50345;SDS011;36248;37.258;-121.918;2022-09-21T06:33:17;0.99;;;0.88;;
50345;SDS011;36248;37.258;-121.918;2022-09-21T06:35:55;0.83;;;0.73;;
50345;SDS011;36248;37.258;-121.918;2022-09-21T06:38:26;0.85;;;0.75;;
50345;SDS011;36248;37.258;-121.918;2022-09-21T06:40:59;1.05;;;0.91;;
50345;SDS011;36248;37.258;-121.918;2022-09-21T06:43:30;0.94;;;0.82;;
50345;SDS011;36248;37.258;-121.918;2022-09-21T06:46:01;0.88;;;0.77;;
50345;SDS011;36248;37.258;-121.918;2022-09-21T06:48:32;0.94;;;0.81;;
50345;SDS011;36248;37.258;-121.918;2022-09-21T06:51:05;1.04;;;0.89;;
50345;SDS011;36248;37.258;-121.918;2022-09-21T06:53:35;1.02;;;0.87;;
50345;SDS011;36248;37.258;-121.918;2022-09-21T06:56:05;0.93;;;0.79;;
50345;SDS011;36248;37.258;-121.918;2022-09-21T06:58:37;0.78;;;0.67;;
50345;SDS011;36248;37.258;-121.918;2022-09-21T07:01:07;0.86;;;0.74;;
50345;SDS011;36248;37.258;-121.918;2022-09-21T07:03:39;1.02;;;0.88;;
50345;SDS011;36248;37.258;-121.918;2022-09-21T07:06:12;1.03;;;0.90;;
50345;SDS011;36248;37.258;-121.918;2022-09-21T07:08:42;1.10;;;0.96;;
50345;SDS011;36248;37.258;-121.918;2022-09-21T07:11:12;1.11;;;0.95;;
50345;SDS011;36248;37.258;-121.918;2022-09-21T07:13:43;1.15;;;1.00;;
50345;SDS011;36248;37.258;-121.918;2022-09-21T07:16:13;1.06;;;0.91;;
50345;SDS011;36248;37.258;-121.918;2022-09-21T07:18:44;1.01;;;0.86;;
50345;SDS011;36248;37.258;-121.918;2022-09-21T07:21:16;1.26;;;1.06;;
50345;SDS011;36248;37.258;-121.918;2022-09-21T07:23:45;0.92;;;0.78;;
50345;SDS011;36248;37.258;-121.918;2022-09-21T07:26:15;1.00;;;0.86;;
50345;SDS011;36248;37.258;-121.918;2022-09-21T07:28:45;1.16;;;0.99;;
50345;SDS011;36248;37.258;-121.918;2022-09-21T07:31:16;1.22;;;1.05;;
50345;SDS011;36248;37.258;-121.918;2022-09-21T07:33:46;1.11;;;0.96;;
50345;SDS011;36248;37.258;-121.918;2022-09-21T07:36:18;1.07;;;0.92;;
50345;SDS011;36248;37.258;-121.918;2022-09-21T07:38:48;1.04;;;0.90;;
50345;SDS011;36248;37.258;-121.918;2022-09-21T07:41:18;1.10;;;0.96;;
50345;SDS011;36248;37.258;-121.918;2022-09-21T07:43:48;0.89;;;0.79;;
50345;SDS011;36248;37.258;-121.918;2022-09-21T07:46:18;1.06;;;0.95;;
50345;SDS011;36248;37.258;-121.918;2022-09-21T07:48:47;1.23;;;1.10;;
50345;SDS011;36248;37.258;-121.918;2022-09-21T07:51:22;1.23;;;1.09;;
50345;SDS011;36248;37.258;-121.918;2022-09-21T07:53:53;1.17;;;1.06;;
50345;SDS011;36248;37.258;-121.918;2022-09-21T07:56:24;1.02;;;0.93;;
50345;SDS011;36248;37.258;-121.918;2022-09-21T07:58:54;1.08;;;0.99;;
50345;SDS011;36248;37.258;-121.918;2022-09-21T08:01:34;1.07;;;0.99;;
50345;SDS011;36248;37.258;-121.918;2022-09-21T08:04:05;1.07;;;0.98;;
50345;SDS011;36248;37.258;-121.918;2022-09-21T08:06:39;0.93;;;0.86;;
50345;SDS011;36248;37.258;-121.918;2022-09-21T08:09:10;1.11;;;1.00;;
50345;SDS011;36248;37.258;-121.918;2022-09-21T08:11:40;1.05;;;0.95;;
50345;SDS011;36248;37.258;-121.918;2022-09-21T08:14:10;0.98;;;0.88;;
50345;SDS011;36248;37.258;-121.918;2022-09-21T08:16:44;1.09;;;0.99;;
50345;SDS011;36248;37.258;-121.918;2022-09-21T08:19:16;1.01;;;0.92;;
50345;SDS011;36248;37.258;-121.918;2022-09-21T08:21:49;1.22;;;1.10;;
50345;SDS011;36248;37.258;-121.918;2022-09-21T08:24:19;0.96;;;0.86;;
50345;SDS011;36248;37.258;-121.918;2022-09-21T08:26:49;1.12;;;1.00;;
50345;SDS011;36248;37.258;-121.918;2022-09-21T08:29:20;1.23;;;1.08;;
50345;SDS011;36248;37.258;-121.918;2022-09-21T08:31:50;1.35;;;1.17;;
50345;SDS011;36248;37.258;-121.918;2022-09-21T08:34:20;1.41;;;1.21;;
50345;SDS011;36248;37.258;-121.918;2022-09-21T08:36:53;1.50;;;1.28;;
50345;SDS011;36248;37.258;-121.918;2022-09-21T08:39:23;1.54;;;1.31;;
50345;SDS011;36248;37.258;-121.918;2022-09-21T08:44:46;1.30;;;1.14;;
50345;SDS011;36248;37.258;-121.918;2022-09-21T08:47:20;1.15;;;1.02;;
50345;SDS011;36248;37.258;-121.918;2022-09-21T08:49:56;1.32;;;1.18;;
50345;SDS011;36248;37.258;-121.918;2022-09-21T08:52:30;1.17;;;1.05;;
50345;SDS011;36248;37.258;-121.918;2022-09-21T08:55:02;1.30;;;1.17;;
50345;SDS011;36248;37.258;-121.918;2022-09-21T08:57:37;1.34;;;1.21;;
50345;SDS011;36248;37.258;-121.918;2022-09-21T09:00:12;1.46;;;1.30;;
50345;SDS011;36248;37.258;-121.918;2022-09-21T09:02:59;1.38;;;1.22;;
50345;SDS011;36248;37.258;-121.918;2022-09-21T09:05:53;1.28;;;1.14;;
50345;SDS011;36248;37.258;-121.918;2022-09-21T09:08:42;1.39;;;1.22;;
50345;SDS011;36248;37.258;-121.918;2022-09-21T09:11:33;1.09;;;0.96;;
50345;SDS011;36248;37.258;-121.918;2022-09-21T09:17:31;1.23;;;1.11;;
50345;SDS011;36248;37.258;-121.918;2022-09-21T09:20:11;1.22;;;1.10;;
50345;SDS011;36248;37.258;-121.918;2022-09-21T09:22:46;1.34;;;1.20;;
50345;SDS011;36248;37.258;-121.918;2022-09-21T09:25:23;1.27;;;1.13;;
50345;SDS011;36248;37.258;-121.918;2022-09-21T09:27:53;1.45;;;1.30;;
50345;SDS011;36248;37.258;-121.918;2022-09-21T09:30:28;1.49;;;1.34;;
50345;SDS011;36248;37.258;-121.918;2022-09-21T09:33:06;1.51;;;1.34;;
50345;SDS011;36248;37.258;-121.918;2022-09-21T09:35:43;1.35;;;1.18;;
50345;SDS011;36248;37.258;-121.918;2022-09-21T09:38:18;1.28;;;1.13;;
50345;SDS011;36248;37.258;-121.918;2022-09-21T09:41:03;1.44;;;1.28;;
50345;SDS011;36248;37.258;-121.918;2022-09-21T09:43:44;1.26;;;1.11;;
50345;SDS011;36248;37.258;-121.918;2022-09-21T09:46:25;1.23;;;1.09;;
50345;SDS011;36248;37.258;-121.918;2022-09-21T09:49:06;1.39;;;1.21;;
50345;SDS011;36248;37.258;-121.918;2022-09-21T09:51:44;1.49;;;1.30;;
50345;SDS011;36248;37.258;-121.918;2022-09-21T09:54:17;1.32;;;1.18;;
50345;SDS011;36248;37.258;-121.918;2022-09-21T09:56:50;1.28;;;1.15;;
50345;SDS011;36248;37.258;-121.918;2022-09-21T09:59:22;1.35;;;1.23;;
50345;SDS011;36248;37.258;-121.918;2022-09-21T10:01:58;1.27;;;1.16;;
50345;SDS011;36248;37.258;-121.918;2022-09-21T10:04:29;1.33;;;1.22;;
50345;SDS011;36248;37.258;-121.918;2022-09-21T10:06:59;1.42;;;1.30;;
50345;SDS011;36248;37.258;-121.918;2022-09-21T10:09:30;1.33;;;1.23;;
50345;SDS011;36248;37.258;-121.918;2022-09-21T10:12:18;1.30;;;1.20;;
50345;SDS011;36248;37.258;-121.918;2022-09-21T10:14:53;1.18;;;1.10;;
50345;SDS011;36248;37.258;-121.918;2022-09-21T10:17:27;1.29;;;1.19;;
50345;SDS011;36248;37.258;-121.918;2022-09-21T10:20:00;1.21;;;1.12;;
50345;SDS011;36248;37.258;-121.918;2022-09-21T10:22:32;1.17;;;1.09;;
50345;SDS011;36248;37.258;-121.918;2022-09-21T10:25:03;1.09;;;1.03;;
50345;SDS011;36248;37.258;-121.918;2022-09-21T10:27:37;1.08;;;1.02;;
50345;SDS011;36248;37.258;-121.918;2022-09-21T10:30:30;1.16;;;1.13;;
50345;SDS011;36248;37.258;-121.918;2022-09-21T10:33:06;1.03;;;1.01;;
50345;SDS011;36248;37.258;-121.918;2022-09-21T10:35:48;1.07;;;1.07;;
50345;SDS011;36248;37.258;-121.918;2022-09-21T10:38:19;1.07;;;1.03;;
50345;SDS011;36248;37.258;-121.918;2022-09-21T10:40:54;1.22;;;1.15;;
50345;SDS011;36248;37.258;-121.918;2022-09-21T10:43:28;1.37;;;1.28;;
50345;SDS011;36248;37.258;-121.918;2022-09-21T10:46:04;1.44;;;1.36;;
50345;SDS011;36248;37.258;-121.918;2022-09-21T10:48:34;1.38;;;1.30;;
50345;SDS011;36248;37.258;-121.918;2022-09-21T10:51:05;1.42;;;1.34;;
50345;SDS011;36248;37.258;-121.918;2022-09-21T10:53:53;1.29;;;1.22;;
50345;SDS011;36248;37.258;-121.918;2022-09-21T10:56:24;1.20;;;1.14;;
50345;SDS011;36248;37.258;-121.918;2022-09-21T10:59:21;1.19;;;1.14;;
50345;SDS011;36248;37.258;-121.918;2022-09-21T11:01:53;1.35;;;1.28;;
50345;SDS011;36248;37.258;-121.918;2022-09-21T11:04:33;1.18;;;1.13;;
50345;SDS011;36248;37.258;-121.918;2022-09-21T11:07:09;1.41;;;1.36;;
50345;SDS011;36248;37.258;-121.918;2022-09-21T11:09:46;1.22;;;1.16;;
50345;SDS011;36248;37.258;-121.918;2022-09-21T11:12:33;1.45;;;1.37;;
50345;SDS011;36248;37.258;-121.918;2022-09-21T11:15:14;1.23;;;1.18;;
50345;SDS011;36248;37.258;-121.918;2022-09-21T11:17:54;1.45;;;1.39;;
50345;SDS011;36248;37.258;-121.918;2022-09-21T11:20:32;1.43;;;1.38;;
50345;SDS011;36248;37.258;-121.918;2022-09-21T11:23:12;1.21;;;1.18;;
50345;SDS011;36248;37.258;-121.918;2022-09-21T11:26:01;1.23;;;1.20;;
50345;SDS011;36248;37.258;-121.918;2022-09-21T11:28:37;1.39;;;1.35;;
50345;SDS011;36248;37.258;-121.918;2022-09-21T11:34:22;1.34;;;1.30;;
50345;SDS011;36248;37.258;-121.918;2022-09-21T11:37:14;1.31;;;1.27;;
50345;SDS011;36248;37.258;-121.918;2022-09-21T11:39:58;1.46;;;1.41;;
50345;SDS011;36248;37.258;-121.918;2022-09-21T11:42:40;1.43;;;1.35;;
50345;SDS011;36248;37.258;-121.918;2022-09-21T11:45:26;1.41;;;1.33;;
50345;SDS011;36248;37.258;-121.918;2022-09-21T11:48:14;1.35;;;1.27;;
50345;SDS011;36248;37.258;-121.918;2022-09-21T11:50:54;1.64;;;1.53;;
50345;SDS011;36248;37.258;-121.918;2022-09-21T11:53:39;1.44;;;1.35;;
50345;SDS011;36248;37.258;-121.918;2022-09-21T11:56:33;1.74;;;1.63;;
50345;SDS011;36248;37.258;-121.918;2022-09-21T11:59:13;1.63;;;1.56;;
50345;SDS011;36248;37.258;-121.918;2022-09-21T12:02:03;1.41;;;1.36;;
50345;SDS011;36248;37.258;-121.918;2022-09-21T12:04:52;1.43;;;1.39;;
50345;SDS011;36248;37.258;-121.918;2022-09-21T12:07:37;1.39;;;1.37;;
50345;SDS011;36248;37.258;-121.918;2022-09-21T12:10:29;1.39;;;1.37;;
50345;SDS011;36248;37.258;-121.918;2022-09-21T12:13:07;1.62;;;1.57;;
50345;SDS011;36248;37.258;-121.918;2022-09-21T12:15:47;1.65;;;1.58;;
50345;SDS011;36248;37.258;-121.918;2022-09-21T12:18:27;1.52;;;1.46;;
50345;SDS011;36248;37.258;-121.918;2022-09-21T12:21:08;1.46;;;1.39;;
50345;SDS011;36248;37.258;-121.918;2022-09-21T12:23:44;1.51;;;1.50;;
50345;SDS011;36248;37.258;-121.918;2022-09-21T12:26:18;1.48;;;1.42;;
50345;SDS011;36248;37.258;-121.918;2022-09-21T12:28:52;1.60;;;1.55;;
50345;SDS011;36248;37.258;-121.918;2022-09-21T12:31:27;1.77;;;1.71;;
50345;SDS011;36248;37.258;-121.918;2022-09-21T12:34:03;1.79;;;1.69;;
50345;SDS011;36248;37.258;-121.918;2022-09-21T12:36:45;1.57;;;1.46;;
50345;SDS011;36248;37.258;-121.918;2022-09-21T12:39:24;1.64;;;1.55;;
50345;SDS011;36248;37.258;-121.918;2022-09-21T12:41:58;1.45;;;1.38;;
50345;SDS011;36248;37.258;-121.918;2022-09-21T12:44:33;1.51;;;1.45;;
50345;SDS011;36248;37.258;-121.918;2022-09-21T12:47:18;1.53;;;1.50;;
50345;SDS011;36248;37.258;-121.918;2022-09-21T12:49:53;1.30;;;1.28;;
50345;SDS011;36248;37.258;-121.918;2022-09-21T12:52:32;1.28;;;1.28;;
50345;SDS011;36248;37.258;-121.918;2022-09-21T12:55:03;1.53;;;1.49;;
50345;SDS011;36248;37.258;-121.918;2022-09-21T12:57:47;1.41;;;1.35;;
50345;SDS011;36248;37.258;-121.918;2022-09-21T13:00:23;1.55;;;1.47;;
50345;SDS011;36248;37.258;-121.918;2022-09-21T13:03:00;1.55;;;1.46;;
50345;SDS011;36248;37.258;-121.918;2022-09-21T13:05:39;1.33;;;1.24;;
50345;SDS011;36248;37.258;-121.918;2022-09-21T13:08:25;1.52;;;1.43;;
50345;SDS011;36248;37.258;-121.918;2022-09-21T13:11:01;1.53;;;1.46;;
50345;SDS011;36248;37.258;-121.918;2022-09-21T13:13:33;1.62;;;1.53;;
50345;SDS011;36248;37.258;-121.918;2022-09-21T13:16:06;1.52;;;1.41;;
50345;SDS011;36248;37.258;-121.918;2022-09-21T13:18:56;1.52;;;1.41;;
50345;SDS011;36248;37.258;-121.918;2022-09-21T13:21:28;1.42;;;1.34;;
50345;SDS011;36248;37.258;-121.918;2022-09-21T13:24:02;1.68;;;1.59;;
50345;SDS011;36248;37.258;-121.918;2022-09-21T13:26:35;1.61;;;1.52;;
50345;SDS011;36248;37.258;-121.918;2022-09-21T13:29:25;1.67;;;1.65;;
50345;SDS011;36248;37.258;-121.918;2022-09-21T13:31:58;1.72;;;1.70;;
50345;SDS011;36248;37.258;-121.918;2022-09-21T13:34:32;1.59;;;1.55;;
50345;SDS011;36248;37.258;-121.918;2022-09-21T13:43:23;1.77;;;1.66;;
50345;SDS011;36248;37.258;-121.918;2022-09-21T13:49:32;2.84;;;2.72;;
50345;SDS011;36248;37.258;-121.918;2022-09-21T13:52:23;2.97;;;2.93;;
50345;SDS011;36248;37.258;-121.918;2022-09-21T13:54:58;1.96;;;1.94;;
50345;SDS011;36248;37.258;-121.918;2022-09-21T13:57:33;1.59;;;1.56;;
50345;SDS011;36248;37.258;-121.918;2022-09-21T14:00:31;1.52;;;1.50;;
50345;SDS011;36248;37.258;-121.918;2022-09-21T14:03:04;1.50;;;1.48;;
50345;SDS011;36248;37.258;-121.918;2022-09-21T14:05:49;1.35;;;1.34;;
50345;SDS011;36248;37.258;-121.918;2022-09-21T14:08:24;1.35;;;1.35;;
50345;SDS011;36248;37.258;-121.918;2022-09-21T14:11:00;1.53;;;1.51;;
50345;SDS011;36248;37.258;-121.918;2022-09-21T14:13:33;1.59;;;1.55;;
50345;SDS011;36248;37.258;-121.918;2022-09-21T14:22:32;1.51;;;1.49;;
50345;SDS011;36248;37.258;-121.918;2022-09-21T14:28:13;1.67;;;1.65;;
50345;SDS011;36248;37.258;-121.918;2022-09-21T14:30:48;1.68;;;1.66;;
50345;SDS011;36248;37.258;-121.918;2022-09-21T14:33:28;1.85;;;1.82;;
50345;SDS011;36248;37.258;-121.918;2022-09-21T14:36:05;1.62;;;1.58;;
50345;SDS011;36248;37.258;-121.918;2022-09-21T14:38:41;1.66;;;1.59;;
50345;SDS011;36248;37.258;-121.918;2022-09-21T14:41:17;1.86;;;1.79;;
50345;SDS011;36248;37.258;-121.918;2022-09-21T14:43:52;2.06;;;1.99;;
50345;SDS011;36248;37.258;-121.918;2022-09-21T14:46:26;2.20;;;2.15;;
50345;SDS011;36248;37.258;-121.918;2022-09-21T14:49:21;2.19;;;2.10;;
50345;SDS011;36248;37.258;-121.918;2022-09-21T14:52:09;1.87;;;1.87;;
50345;SDS011;36248;37.258;-121.918;2022-09-21T14:54:47;2.18;;;2.12;;
50345;SDS011;36248;37.258;-121.918;2022-09-21T14:57:30;1.96;;;1.86;;
50345;SDS011;36248;37.258;-121.918;2022-09-21T15:00:35;1.88;;;1.81;;
50345;SDS011;36248;37.258;-121.918;2022-09-21T15:06:14;1.83;;;1.79;;
50345;SDS011;36248;37.258;-121.918;2022-09-21T15:09:16;2.09;;;2.01;;
50345;SDS011;36248;37.258;-121.918;2022-09-21T15:12:18;1.90;;;1.81;;
50345;SDS011;36248;37.258;-121.918;2022-09-21T15:14:54;2.26;;;2.09;;
50345;SDS011;36248;37.258;-121.918;2022-09-21T15:17:27;2.16;;;1.99;;
50345;SDS011;36248;37.258;-121.918;2022-09-21T15:19:59;2.16;;;2.01;;
50345;SDS011;36248;37.258;-121.918;2022-09-21T15:22:45;2.12;;;1.96;;
50345;SDS011;36248;37.258;-121.918;2022-09-21T15:25:15;2.40;;;2.19;;
50345;SDS011;36248;37.258;-121.918;2022-09-21T15:27:44;2.04;;;1.90;;
50345;SDS011;36248;37.258;-121.918;2022-09-21T15:30:18;2.15;;;2.00;;